Time;durP1;ratioP1;P1;durP2;ratioP2;P2;SDS_P1;SDS_P2;PMS_P1;PMS_P2;Temp;Humidity;BMP_temperature;BMP_pressure;BME280_temperature;BME280_humidity;BME280_pressure;Samples;Min_cycle;Max_cycle;Signal;HPM_P1;HPM_P2
2023/12/23 00:00:16;;;;;;;0.80;0.60;;;6.80;99.90;;;;;;5010772;28;20041;-82
2023/12/23 00:02:41;;;;;;;0.43;0.43;;;6.80;99.90;;;;;;5009946;28;20034;-83
2023/12/23 00:05:07;;;;;;;0.50;0.50;;;6.80;99.90;;;;;;5009473;28;20018;-82
2023/12/23 00:07:33;;;;;;;0.87;0.70;;;6.80;99.90;;;;;;5008949;28;20034;-83
2023/12/23 00:09:58;;;;;;;0.80;0.50;;;6.70;99.90;;;;;;5009139;28;20033;-82
2023/12/23 00:12:24;;;;;;;2.40;0.60;;;6.70;99.90;;;;;;4990049;28;20026;-83
2023/12/23 00:14:49;;;;;;;1.47;0.60;;;6.80;99.90;;;;;;5007707;28;20485;-82
2023/12/23 00:17:15;;;;;;;1.27;0.63;;;6.70;99.90;;;;;;5009289;28;20765;-83
2023/12/23 00:19:40;;;;;;;0.60;0.50;;;6.80;99.90;;;;;;5008369;28;20038;-83
2023/12/23 00:22:06;;;;;;;2.10;0.60;;;6.70;99.90;;;;;;5008816;28;20066;-82
2023/12/23 00:24:32;;;;;;;1.07;0.70;;;6.80;99.90;;;;;;5008023;28;20133;-82
2023/12/23 00:26:57;;;;;;;1.80;0.50;;;6.70;99.90;;;;;;5006444;28;20080;-83
2023/12/23 00:29:26;;;;;;;1.17;0.70;;;6.70;99.90;;;;;;4990195;28;20125;-83
2023/12/23 00:31:52;;;;;;;1.60;0.63;;;6.70;99.90;;;;;;5008472;28;20064;-83
2023/12/23 00:34:18;;;;;;;2.10;0.53;;;6.70;99.90;;;;;;5008796;28;20755;-83
2023/12/23 00:36:44;;;;;;;1.00;0.50;;;6.70;99.90;;;;;;5006439;28;20602;-82
2023/12/23 00:39:09;;;;;;;0.67;0.60;;;6.70;99.90;;;;;;5007979;28;20082;-83
2023/12/23 00:41:35;;;;;;;0.97;0.53;;;6.70;99.90;;;;;;5007316;28;20254;-82
2023/12/23 00:44:01;;;;;;;0.50;0.50;;;6.80;99.90;;;;;;5008656;28;20037;-83
2023/12/23 00:46:28;;;;;;;0.57;0.53;;;6.80;99.90;;;;;;5007382;28;20033;-83
2023/12/23 00:48:56;;;;;;;3.30;0.60;;;6.70;99.90;;;;;;5006172;28;20188;-83
2023/12/23 00:51:22;;;;;;;1.33;0.70;;;6.60;99.90;;;;;;5006023;28;20449;-83
2023/12/23 00:53:47;;;;;;;1.27;0.60;;;6.60;99.90;;;;;;5006338;28;20073;-83
2023/12/23 00:56:20;;;;;;;2.10;0.70;;;6.50;99.90;;;;;;5006957;28;20069;-82
2023/12/23 00:58:46;;;;;;;0.60;0.60;;;6.50;99.90;;;;;;4988927;28;20143;-83
2023/12/23 01:01:12;;;;;;;2.93;0.80;;;6.50;99.90;;;;;;5005710;28;20049;-81
2023/12/23 01:03:37;;;;;;;0.83;0.60;;;6.70;99.90;;;;;;5006325;28;20034;-82
2023/12/23 01:06:03;;;;;;;0.70;0.57;;;6.70;99.90;;;;;;5008399;28;20504;-82
2023/12/23 01:08:28;;;;;;;1.20;0.70;;;6.70;99.90;;;;;;5007930;28;20046;-83
2023/12/23 01:10:54;;;;;;;2.70;0.80;;;6.70;99.90;;;;;;5007728;28;20136;-81
2023/12/23 01:13:20;;;;;;;1.70;0.80;;;6.70;99.90;;;;;;5006941;28;20032;-81
2023/12/23 01:15:45;;;;;;;0.70;0.70;;;6.80;99.90;;;;;;5004659;28;20034;-82
2023/12/23 01:18:11;;;;;;;0.70;0.70;;;6.70;99.90;;;;;;5007729;28;20029;-82
2023/12/23 01:20:38;;;;;;;1.93;0.70;;;6.70;99.90;;;;;;5006719;28;20038;-82
2023/12/23 01:23:04;;;;;;;0.93;0.60;;;6.70;99.90;;;;;;5006961;28;20046;-82
2023/12/23 01:25:29;;;;;;;0.50;0.50;;;6.70;99.90;;;;;;5007565;28;20030;-81
2023/12/23 01:28:00;;;;;;;1.27;0.50;;;6.70;99.90;;;;;;5006334;28;20041;-82
2023/12/23 01:30:25;;;;;;;1.90;1.30;;;6.70;99.90;;;;;;5006999;28;20034;-82
2023/12/23 01:32:51;;;;;;;0.60;0.60;;;6.70;99.90;;;;;;5007802;28;20029;-83
2023/12/23 01:35:16;;;;;;;1.70;0.83;;;6.70;99.90;;;;;;4989109;28;20087;-81
2023/12/23 01:37:42;;;;;;;2.37;0.67;;;6.60;99.90;;;;;;5006642;28;20057;-82
2023/12/23 01:40:08;;;;;;;1.03;0.60;;;6.60;99.90;;;;;;5006032;28;20044;-81
2023/12/23 01:42:35;;;;;;;1.17;0.70;;;6.70;99.90;;;;;;5006458;28;20054;-82
2023/12/23 01:45:01;;;;;;;1.27;0.50;;;6.70;99.90;;;;;;5006871;28;20061;-83
2023/12/23 01:47:26;;;;;;;0.50;0.50;;;6.70;99.90;;;;;;5006795;28;20068;-82
2023/12/23 01:49:52;;;;;;;1.23;0.60;;;6.70;99.90;;;;;;5007843;28;20061;-81
2023/12/23 01:52:18;;;;;;;1.00;0.60;;;6.80;99.90;;;;;;5005278;28;20113;-83
2023/12/23 01:54:43;;;;;;;0.97;0.60;;;6.80;99.90;;;;;;5004686;28;20026;-83
2023/12/23 01:57:09;;;;;;;0.70;0.60;;;6.70;99.90;;;;;;5006553;28;20563;-83
2023/12/23 01:59:35;;;;;;;1.03;0.50;;;6.70;99.90;;;;;;5008076;28;20037;-82
2023/12/23 02:02:01;;;;;;;0.93;0.50;;;6.60;99.90;;;;;;5007088;28;20030;-81
2023/12/23 02:04:27;;;;;;;0.70;0.70;;;6.50;99.90;;;;;;5005359;28;20042;-81
2023/12/23 02:06:52;;;;;;;0.50;0.50;;;6.50;99.90;;;;;;5006258;28;20109;-82
2023/12/23 02:09:18;;;;;;;1.07;0.50;;;6.50;99.90;;;;;;5004914;28;20097;-82
2023/12/23 02:12:21;;;;;;;1.10;0.50;;;6.50;99.90;;;;;;5006824;28;20166;-82
2023/12/23 02:15:03;;;;;;;0.83;0.50;;;6.50;99.90;;;;;;5005863;28;20037;-81
2023/12/23 02:17:29;;;;;;;1.33;0.50;;;6.50;99.90;;;;;;5005426;28;20052;-81
2023/12/23 02:19:54;;;;;;;2.50;0.67;;;6.40;99.90;;;;;;5009255;28;20033;-82
2023/12/23 02:22:20;;;;;;;0.60;0.50;;;6.40;99.90;;;;;;5011164;28;20034;-81
2023/12/23 02:24:46;;;;;;;1.97;0.70;;;6.40;99.90;;;;;;5011785;28;20048;-82
2023/12/23 02:27:14;;;;;;;1.20;0.60;;;6.40;99.90;;;;;;5008709;28;20034;-81
2023/12/23 02:29:41;;;;;;;0.50;0.50;;;6.30;99.90;;;;;;5008324;28;20440;-83
2023/12/23 02:32:09;;;;;;;1.57;0.70;;;6.30;99.90;;;;;;5008417;28;20030;-82
2023/12/23 02:34:35;;;;;;;1.13;0.50;;;6.30;99.90;;;;;;5007982;28;20406;-82
2023/12/23 02:37:01;;;;;;;1.27;0.60;;;6.20;99.90;;;;;;5009308;28;20041;-82
2023/12/23 02:39:26;;;;;;;0.50;0.50;;;6.10;99.90;;;;;;4989482;28;20108;-82
2023/12/23 02:41:52;;;;;;;0.43;0.40;;;6.10;99.90;;;;;;5009847;28;20777;-83
2023/12/23 02:44:17;;;;;;;0.50;0.43;;;6.10;99.90;;;;;;5008125;28;20774;-84
2023/12/23 02:46:43;;;;;;;0.50;0.50;;;6.20;99.90;;;;;;5007783;28;20069;-82
2023/12/23 02:49:08;;;;;;;0.57;0.57;;;6.10;99.90;;;;;;5007090;28;20061;-81
2023/12/23 02:51:34;;;;;;;0.50;0.50;;;6.10;99.90;;;;;;5008355;28;20076;-82
2023/12/23 02:53:59;;;;;;;0.50;0.50;;;6.10;99.90;;;;;;5009206;28;20136;-81
2023/12/23 02:56:25;;;;;;;1.07;0.60;;;6.10;99.90;;;;;;5008515;28;20052;-81
2023/12/23 02:58:50;;;;;;;0.90;0.40;;;6.10;99.90;;;;;;5008124;28;20037;-82
2023/12/23 03:01:19;;;;;;;0.50;0.50;;;6.10;99.90;;;;;;5007890;28;20033;-81
2023/12/23 03:03:45;;;;;;;0.50;0.50;;;6.10;99.90;;;;;;5007407;28;20201;-82
2023/12/23 03:06:16;;;;;;;0.53;0.40;;;6.20;99.90;;;;;;5007419;28;20176;-82
2023/12/23 03:08:42;;;;;;;0.50;0.50;;;6.20;99.90;;;;;;5006425;28;20031;-82
2023/12/23 03:11:08;;;;;;;0.77;0.50;;;6.20;99.90;;;;;;5008353;28;20059;-82
2023/12/23 03:13:34;;;;;;;0.93;0.57;;;6.20;99.90;;;;;;5008010;28;20037;-81
2023/12/23 03:15:59;;;;;;;0.60;0.50;;;6.20;99.90;;;;;;5007602;28;20039;-82
2023/12/23 03:18:25;;;;;;;1.67;0.50;;;6.20;99.90;;;;;;5009225;28;20037;-82
2023/12/23 03:20:50;;;;;;;0.83;0.50;;;6.30;99.90;;;;;;5007826;28;20109;-82
2023/12/23 03:23:16;;;;;;;0.40;0.40;;;6.20;99.90;;;;;;5008167;28;20153;-83
2023/12/23 03:25:42;;;;;;;0.57;0.50;;;6.20;99.90;;;;;;5006854;28;20041;-82
2023/12/23 03:28:08;;;;;;;1.43;0.93;;;6.10;99.90;;;;;;5006752;28;20065;-82
2023/12/23 03:30:33;;;;;;;0.40;0.40;;;6.10;99.90;;;;;;5006452;28;20034;-82
2023/12/23 03:32:59;;;;;;;0.63;0.50;;;6.10;99.90;;;;;;4990320;28;20022;-82
2023/12/23 03:35:24;;;;;;;0.50;0.50;;;6.10;99.90;;;;;;5008082;28;20052;-84
2023/12/23 03:37:50;;;;;;;0.50;0.50;;;6.10;99.90;;;;;;5007814;28;20080;-82
2023/12/23 03:40:15;;;;;;;2.20;0.50;;;6.20;99.90;;;;;;5006112;28;20034;-82
2023/12/23 03:42:41;;;;;;;0.57;0.50;;;6.30;99.90;;;;;;5006989;28;20042;-82
2023/12/23 03:45:07;;;;;;;0.80;0.60;;;6.20;99.90;;;;;;5006172;28;20064;-83
2023/12/23 03:47:34;;;;;;;1.23;0.50;;;6.10;99.90;;;;;;5006720;28;20041;-83
2023/12/23 03:50:00;;;;;;;1.33;0.60;;;6.10;99.90;;;;;;5007356;28;20060;-82
2023/12/23 03:52:25;;;;;;;0.57;0.40;;;6.10;99.90;;;;;;5009415;28;20058;-84
2023/12/23 03:54:51;;;;;;;0.40;0.40;;;6.10;99.90;;;;;;5007447;28;20037;-82
2023/12/23 03:57:16;;;;;;;0.40;0.40;;;6.10;99.90;;;;;;5007597;28;20161;-82
2023/12/23 03:59:42;;;;;;;1.13;0.50;;;6.00;99.90;;;;;;5005985;28;20049;-82
2023/12/23 04:02:07;;;;;;;2.07;0.43;;;6.00;99.90;;;;;;5006828;28;20558;-82
2023/12/23 04:04:36;;;;;;;0.60;0.60;;;6.10;99.90;;;;;;4989593;28;20030;-84
2023/12/23 04:07:03;;;;;;;1.40;0.50;;;6.10;99.90;;;;;;5006242;28;20045;-82
2023/12/23 04:09:29;;;;;;;2.67;0.83;;;6.10;99.90;;;;;;5006683;28;20113;-84
2023/12/23 04:11:55;;;;;;;0.47;0.47;;;6.10;99.90;;;;;;5006819;28;20053;-82
2023/12/23 04:14:21;;;;;;;1.37;0.80;;;6.20;99.90;;;;;;5008124;28;20173;-83
2023/12/23 04:16:47;;;;;;;0.40;0.40;;;6.30;99.90;;;;;;5007414;28;20077;-82
2023/12/23 04:19:12;;;;;;;0.40;0.40;;;6.30;99.90;;;;;;5004820;28;20045;-82
2023/12/23 04:21:38;;;;;;;0.90;0.57;;;6.30;99.90;;;;;;5006625;28;20030;-82
2023/12/23 04:24:04;;;;;;;0.53;0.53;;;6.30;99.90;;;;;;5006408;28;20022;-82
2023/12/23 04:26:30;;;;;;;0.80;0.50;;;6.20;99.90;;;;;;5005107;28;21877;-83
2023/12/23 04:28:56;;;;;;;1.03;0.53;;;6.10;99.90;;;;;;5006057;28;20037;-82
2023/12/23 04:31:21;;;;;;;0.50;0.43;;;6.10;99.90;;;;;;4987031;28;20029;-84
2023/12/23 04:33:47;;;;;;;0.60;0.50;;;6.10;99.90;;;;;;5005987;28;20485;-82
2023/12/23 04:36:12;;;;;;;0.50;0.50;;;6.10;99.90;;;;;;5003563;28;20133;-82
2023/12/23 04:38:38;;;;;;;0.70;0.70;;;6.00;99.90;;;;;;5004789;28;20040;-83
2023/12/23 04:41:04;;;;;;;9.27;0.67;;;6.00;99.90;;;;;;5003658;28;20064;-83
2023/12/23 04:43:30;;;;;;;0.40;0.40;;;6.00;99.90;;;;;;5006942;28;20049;-83
2023/12/23 04:45:56;;;;;;;0.87;0.50;;;6.00;99.90;;;;;;5007937;28;20065;-83
2023/12/23 04:48:21;;;;;;;0.80;0.50;;;6.00;99.90;;;;;;5005905;28;20033;-82
2023/12/23 04:50:47;;;;;;;0.50;0.50;;;5.90;99.90;;;;;;5006313;28;20030;-82
2023/12/23 04:53:12;;;;;;;1.57;0.50;;;6.00;99.90;;;;;;5005521;28;20022;-82
2023/12/23 04:55:38;;;;;;;1.03;0.70;;;6.00;99.90;;;;;;5005853;28;20056;-82
2023/12/23 04:58:03;;;;;;;0.80;0.60;;;5.90;99.90;;;;;;5006343;28;20076;-82
2023/12/23 05:00:29;;;;;;;0.40;0.40;;;5.90;99.90;;;;;;5006126;28;20072;-82
2023/12/23 05:02:54;;;;;;;0.47;0.47;;;5.90;99.90;;;;;;5006147;28;20030;-82
2023/12/23 05:05:20;;;;;;;0.40;0.40;;;5.90;99.90;;;;;;5007051;28;20131;-82
2023/12/23 05:07:46;;;;;;;1.17;0.50;;;5.90;99.90;;;;;;5004791;28;20084;-83
2023/12/23 05:10:12;;;;;;;0.60;0.50;;;5.90;99.90;;;;;;4987558;28;20120;-82
2023/12/23 05:12:37;;;;;;;0.60;0.60;;;5.90;99.90;;;;;;5004881;28;20667;-83
2023/12/23 05:15:05;;;;;;;0.60;0.60;;;6.10;99.90;;;;;;5006976;28;20181;-82
2023/12/23 05:17:30;;;;;;;0.60;0.60;;;6.00;99.90;;;;;;5006690;28;20037;-83
2023/12/23 05:19:56;;;;;;;0.60;0.60;;;6.00;99.90;;;;;;5004099;28;20026;-83
2023/12/23 05:22:22;;;;;;;1.70;0.77;;;6.00;99.90;;;;;;5004189;28;20092;-82
2023/12/23 05:24:48;;;;;;;1.73;0.60;;;6.00;99.90;;;;;;5004765;28;20052;-83
2023/12/23 05:27:14;;;;;;;0.77;0.63;;;6.00;99.90;;;;;;4990771;28;20073;-82
2023/12/23 05:29:39;;;;;;;1.37;0.70;;;5.90;99.90;;;;;;5003083;28;20072;-82
2023/12/23 05:32:05;;;;;;;0.90;0.57;;;5.90;99.90;;;;;;5003864;28;20034;-83
2023/12/23 05:34:31;;;;;;;1.60;0.60;;;6.00;99.90;;;;;;4996827;28;20100;-82
2023/12/23 05:36:56;;;;;;;0.50;0.50;;;5.90;99.90;;;;;;5002412;28;20029;-83
2023/12/23 05:39:22;;;;;;;0.53;0.50;;;6.00;99.90;;;;;;5002860;28;20068;-82
2023/12/23 05:41:47;;;;;;;1.47;0.60;;;6.10;99.90;;;;;;5003938;28;20034;-82
2023/12/23 05:44:13;;;;;;;0.77;0.60;;;6.00;99.90;;;;;;5004275;28;20038;-82
2023/12/23 05:46:38;;;;;;;0.50;0.50;;;6.00;99.90;;;;;;5003095;28;20026;-82
2023/12/23 05:49:04;;;;;;;1.33;0.70;;;6.00;99.90;;;;;;5005186;28;20041;-82
2023/12/23 05:51:29;;;;;;;0.60;0.60;;;6.00;99.90;;;;;;5004139;28;20045;-82
2023/12/23 05:53:55;;;;;;;0.93;0.60;;;5.90;99.90;;;;;;5002217;28;20041;-82
2023/12/23 05:56:20;;;;;;;1.13;0.53;;;6.00;99.90;;;;;;5005143;28;20065;-83
2023/12/23 05:58:46;;;;;;;0.83;0.53;;;6.00;99.90;;;;;;5003963;28;20045;-82
2023/12/23 06:01:11;;;;;;;0.80;0.50;;;6.00;99.90;;;;;;5005531;28;20161;-82
2023/12/23 06:03:37;;;;;;;0.63;0.53;;;6.00;99.90;;;;;;5004287;28;20045;-83
2023/12/23 06:06:05;;;;;;;1.20;0.73;;;6.10;99.90;;;;;;5004108;28;20026;-83
2023/12/23 06:08:31;;;;;;;0.87;0.70;;;6.10;99.90;;;;;;5006458;28;20053;-82
2023/12/23 06:10:56;;;;;;;0.50;0.50;;;6.00;99.90;;;;;;5004957;28;20068;-82
2023/12/23 06:13:24;;;;;;;0.67;0.60;;;6.00;99.90;;;;;;5005054;28;20110;-81
2023/12/23 06:15:49;;;;;;;1.23;0.60;;;6.00;99.90;;;;;;5004602;28;20065;-81
2023/12/23 06:18:15;;;;;;;2.17;0.80;;;6.00;99.90;;;;;;5003760;28;20054;-83
2023/12/23 06:20:41;;;;;;;1.43;1.10;;;6.00;99.90;;;;;;5004347;28;20165;-82
2023/12/23 06:23:06;;;;;;;0.90;0.70;;;5.90;99.90;;;;;;5004788;28;20443;-82
2023/12/23 06:25:32;;;;;;;2.30;0.70;;;5.90;99.90;;;;;;5005025;28;20496;-82
2023/12/23 06:27:58;;;;;;;0.97;0.60;;;5.90;99.90;;;;;;5004060;28;20036;-82
2023/12/23 06:30:23;;;;;;;1.10;0.67;;;5.90;99.90;;;;;;4986571;28;20091;-82
2023/12/23 06:32:49;;;;;;;1.47;0.70;;;5.90;99.90;;;;;;5004799;28;20022;-83
2023/12/23 06:35:14;;;;;;;0.73;0.60;;;5.90;99.90;;;;;;5003776;28;20039;-82
2023/12/23 06:37:40;;;;;;;1.83;0.90;;;5.90;99.90;;;;;;5005419;28;20044;-82
2023/12/23 06:40:06;;;;;;;0.80;0.60;;;5.80;99.90;;;;;;5002749;28;20034;-82
2023/12/23 06:42:31;;;;;;;1.87;0.73;;;5.80;99.90;;;;;;4984817;28;20033;-82
2023/12/23 06:45:00;;;;;;;1.77;0.67;;;5.90;99.90;;;;;;4999702;28;20032;-82
2023/12/23 06:47:26;;;;;;;1.63;0.77;;;5.90;99.90;;;;;;4981709;28;20049;-82
2023/12/23 06:49:52;;;;;;;0.90;0.60;;;5.90;99.90;;;;;;5001155;28;20045;-84
2023/12/23 06:52:17;;;;;;;0.77;0.60;;;5.90;99.90;;;;;;5005485;28;20102;-83
2023/12/23 06:54:43;;;;;;;1.17;0.60;;;6.00;99.90;;;;;;5006111;28;20050;-84
2023/12/23 06:57:09;;;;;;;1.00;0.70;;;6.00;99.90;;;;;;5004352;28;20041;-83
2023/12/23 06:59:35;;;;;;;1.50;0.60;;;5.90;99.90;;;;;;5003522;28;20081;-84
2023/12/23 07:02:00;;;;;;;1.07;0.60;;;5.90;99.90;;;;;;5001867;28;20069;-89
2023/12/23 07:04:26;;;;;;;1.13;0.60;;;5.80;99.90;;;;;;5005409;28;20041;-83
2023/12/23 07:06:51;;;;;;;0.77;0.70;;;5.90;99.90;;;;;;5010491;28;20049;-85
2023/12/23 07:09:17;;;;;;;0.80;0.80;;;5.80;99.90;;;;;;5013053;28;20033;-84
2023/12/23 07:11:43;;;;;;;0.60;0.60;;;5.90;99.90;;;;;;5011615;28;20061;-84
2023/12/23 07:14:08;;;;;;;1.77;1.00;;;5.80;99.90;;;;;;5013901;28;20069;-83
2023/12/23 07:16:34;;;;;;;0.60;0.50;;;5.90;99.90;;;;;;5010104;28;20117;-84
2023/12/23 07:18:59;;;;;;;0.77;0.70;;;5.90;99.90;;;;;;5014066;28;20068;-83
2023/12/23 07:21:25;;;;;;;0.60;0.60;;;6.00;99.90;;;;;;5012097;28;20114;-83
2023/12/23 07:23:53;;;;;;;0.60;0.60;;;6.00;99.90;;;;;;5017858;28;20030;-84
2023/12/23 07:26:19;;;;;;;0.73;0.60;;;6.00;99.90;;;;;;5011531;28;20026;-85
2023/12/23 07:28:44;;;;;;;0.70;0.70;;;5.90;99.90;;;;;;5017077;28;20048;-84
2023/12/23 07:31:10;;;;;;;0.57;0.53;;;5.90;99.90;;;;;;5008684;28;20030;-84
2023/12/23 07:33:35;;;;;;;0.87;0.70;;;5.90;99.90;;;;;;5010730;28;20030;-84
2023/12/23 07:36:01;;;;;;;1.07;0.70;;;5.90;99.90;;;;;;4991536;28;20405;-84
2023/12/23 07:38:26;;;;;;;1.27;0.53;;;6.00;99.90;;;;;;5010412;28;20026;-84
2023/12/23 07:40:52;;;;;;;0.97;0.70;;;6.00;99.90;;;;;;5010088;28;20036;-84
2023/12/23 07:43:17;;;;;;;1.57;0.80;;;6.00;99.90;;;;;;5011370;28;20030;-83
2023/12/23 07:45:43;;;;;;;2.30;0.70;;;6.00;99.90;;;;;;5010729;28;20069;-83
2023/12/23 07:48:09;;;;;;;0.60;0.60;;;6.10;99.90;;;;;;5009938;28;20140;-83
2023/12/23 07:50:34;;;;;;;0.60;0.60;;;6.20;99.90;;;;;;5009567;28;20049;-84
2023/12/23 07:53:00;;;;;;;0.50;0.50;;;6.20;99.90;;;;;;5009748;28;20026;-83
2023/12/23 07:55:26;;;;;;;0.50;0.50;;;6.20;99.90;;;;;;5009438;28;20051;-84
2023/12/23 07:57:52;;;;;;;0.97;0.70;;;6.20;99.90;;;;;;5008686;28;20054;-83
2023/12/23 08:00:18;;;;;;;0.70;0.60;;;6.20;99.90;;;;;;4992663;28;20037;-83
2023/12/23 08:02:43;;;;;;;1.00;0.80;;;6.20;99.90;;;;;;5009329;28;21023;-83
2023/12/23 08:05:09;;;;;;;1.43;1.33;;;6.10;99.90;;;;;;5009589;28;20101;-82
2023/12/23 08:07:36;;;;;;;0.63;0.60;;;6.20;99.90;;;;;;5009771;28;20029;-83
2023/12/23 08:10:02;;;;;;;0.90;0.60;;;6.20;99.90;;;;;;5008142;28;20038;-83
2023/12/23 08:12:28;;;;;;;0.87;0.53;;;6.20;99.90;;;;;;5004132;28;20026;-84
2023/12/23 08:14:53;;;;;;;0.50;0.50;;;6.20;99.90;;;;;;5001260;28;20078;-84
2023/12/23 08:17:19;;;;;;;0.80;0.50;;;6.20;99.90;;;;;;5001754;28;20527;-83
2023/12/23 08:19:45;;;;;;;0.63;0.63;;;6.20;99.90;;;;;;5002359;28;20033;-84
2023/12/23 08:22:10;;;;;;;0.63;0.50;;;6.20;99.90;;;;;;5001203;28;20883;-84
2023/12/23 08:24:36;;;;;;;0.50;0.50;;;6.20;99.90;;;;;;5002048;28;20508;-84
2023/12/23 08:27:01;;;;;;;0.80;0.50;;;6.20;99.90;;;;;;5003184;28;20030;-84
2023/12/23 08:29:27;;;;;;;0.50;0.50;;;6.20;99.90;;;;;;5001812;28;20125;-84
2023/12/23 08:31:52;;;;;;;1.10;0.53;;;6.30;99.90;;;;;;5001075;28;20172;-85
2023/12/23 08:34:18;;;;;;;0.50;0.50;;;6.20;99.90;;;;;;5002272;28;20045;-84
2023/12/23 08:36:44;;;;;;;0.50;0.50;;;6.20;99.90;;;;;;5001597;28;20070;-84
2023/12/23 08:39:10;;;;;;;0.50;0.50;;;6.30;99.90;;;;;;5000422;28;20076;-84
2023/12/23 08:41:35;;;;;;;0.63;0.63;;;6.30;99.90;;;;;;5002426;28;20037;-85
2023/12/23 08:44:02;;;;;;;0.53;0.50;;;6.20;99.90;;;;;;5003363;28;20452;-84
2023/12/23 08:46:29;;;;;;;0.43;0.43;;;6.20;99.90;;;;;;5001980;28;20065;-82
2023/12/23 08:48:54;;;;;;;0.60;0.60;;;6.20;99.90;;;;;;5001896;28;20497;-83
2023/12/23 08:51:20;;;;;;;4.10;0.97;;;6.30;99.90;;;;;;5001094;28;20035;-81
2023/12/23 08:53:46;;;;;;;1.00;0.50;;;6.20;99.90;;;;;;5002505;28;20038;-83
2023/12/23 08:56:11;;;;;;;0.90;0.60;;;6.30;99.90;;;;;;5001214;28;20780;-84
2023/12/23 08:58:37;;;;;;;1.10;0.70;;;6.30;99.90;;;;;;5002985;28;20030;-83
2023/12/23 09:01:02;;;;;;;0.50;0.50;;;6.30;99.90;;;;;;5001189;28;20118;-84
2023/12/23 09:03:30;;;;;;;0.60;0.60;;;6.40;99.90;;;;;;4999756;28;20039;-83
2023/12/23 09:05:57;;;;;;;0.40;0.40;;;6.40;99.90;;;;;;5002100;28;20082;-85
2023/12/23 09:08:22;;;;;;;1.40;0.70;;;6.50;99.90;;;;;;5001475;28;20072;-82
2023/12/23 09:10:48;;;;;;;0.50;0.50;;;6.50;99.90;;;;;;4999877;28;20061;-83
2023/12/23 09:13:14;;;;;;;0.57;0.50;;;6.50;99.90;;;;;;5001671;28;21150;-82
2023/12/23 09:15:40;;;;;;;0.53;0.53;;;6.50;99.90;;;;;;5001533;28;20046;-82
2023/12/23 09:18:05;;;;;;;0.73;0.60;;;6.50;99.90;;;;;;4999359;28;20030;-82
2023/12/23 09:20:31;;;;;;;1.67;0.70;;;6.50;99.90;;;;;;5000694;28;20076;-84
2023/12/23 09:22:57;;;;;;;0.50;0.50;;;6.50;99.90;;;;;;5000985;28;20096;-83
2023/12/23 09:25:22;;;;;;;0.50;0.50;;;6.60;99.90;;;;;;5002632;28;20109;-82
2023/12/23 09:27:48;;;;;;;0.50;0.50;;;6.60;99.90;;;;;;5002249;28;21507;-82
2023/12/23 09:30:14;;;;;;;0.40;0.40;;;6.70;99.90;;;;;;5001287;28;20604;-82
2023/12/23 09:32:40;;;;;;;0.50;0.50;;;6.70;99.90;;;;;;5002311;28;20110;-83
2023/12/23 09:35:05;;;;;;;0.50;0.50;;;6.70;99.90;;;;;;5003582;28;20101;-83
2023/12/23 09:37:31;;;;;;;0.50;0.50;;;6.80;99.90;;;;;;5001947;28;20030;-82
2023/12/23 09:39:59;;;;;;;0.57;0.50;;;6.80;99.90;;;;;;5005212;28;20030;-84
2023/12/23 09:42:24;;;;;;;0.50;0.50;;;6.70;99.90;;;;;;5009257;28;20034;-85
2023/12/23 09:44:50;;;;;;;1.50;0.50;;;6.90;99.90;;;;;;5009479;28;20149;-83
2023/12/23 09:47:16;;;;;;;0.40;0.40;;;6.80;99.90;;;;;;5007877;28;20041;-85
2023/12/23 09:49:42;;;;;;;0.73;0.50;;;6.90;99.90;;;;;;5007359;28;20045;-85
2023/12/23 09:52:08;;;;;;;1.33;0.70;;;6.90;99.90;;;;;;5009346;28;20041;-84
2023/12/23 09:54:41;;;;;;;0.43;0.40;;;7.00;99.90;;;;;;4991442;28;20045;-84
2023/12/23 09:57:08;;;;;;;0.50;0.50;;;7.00;99.90;;;;;;5009907;28;20033;-84
2023/12/23 09:59:34;;;;;;;1.23;0.63;;;7.00;99.90;;;;;;4991840;28;20026;-85
2023/12/23 10:02:00;;;;;;;0.70;0.60;;;7.00;99.90;;;;;;5009545;28;20034;-84
2023/12/23 10:04:27;;;;;;;0.80;0.40;;;7.00;99.90;;;;;;5010654;28;20022;-84
2023/12/23 10:06:53;;;;;;;0.70;0.53;;;7.00;99.90;;;;;;5010889;28;20129;-86
2023/12/23 10:09:18;;;;;;;1.23;0.60;;;7.10;99.90;;;;;;5011598;28;20080;-84
2023/12/23 10:11:44;;;;;;;0.40;0.40;;;7.10;99.90;;;;;;5010550;28;20060;-84
2023/12/23 10:14:10;;;;;;;1.53;0.50;;;7.10;99.90;;;;;;5010623;28;20041;-83
2023/12/23 10:16:35;;;;;;;0.50;0.50;;;7.10;99.90;;;;;;5011356;28;20046;-84
2023/12/23 10:19:01;;;;;;;0.90;0.70;;;7.10;99.90;;;;;;5012032;28;20089;-84
2023/12/23 10:21:26;;;;;;;0.53;0.50;;;7.10;99.90;;;;;;4996395;28;20041;-83
2023/12/23 10:23:53;;;;;;;0.77;0.50;;;7.20;99.90;;;;;;5003186;28;20227;-81
2023/12/23 10:26:19;;;;;;;2.10;0.73;;;7.20;99.90;;;;;;5003294;28;20073;-84
2023/12/23 10:28:52;;;;;;;0.63;0.50;;;7.20;99.90;;;;;;5001633;28;20053;-84
2023/12/23 10:31:20;;;;;;;0.57;0.50;;;7.20;99.90;;;;;;5003436;28;20044;-84
2023/12/23 10:33:53;;;;;;;0.70;0.57;;;7.10;99.90;;;;;;5003510;28;20026;-85
2023/12/23 10:36:19;;;;;;;0.43;0.43;;;7.20;99.90;;;;;;5001759;28;20049;-83
2023/12/23 10:38:51;;;;;;;0.50;0.50;;;7.20;99.90;;;;;;4999557;28;20069;-82
2023/12/23 10:41:16;;;;;;;0.50;0.50;;;7.20;99.90;;;;;;5010479;28;20152;-83
2023/12/23 10:43:44;;;;;;;0.50;0.50;;;7.20;99.90;;;;;;5015846;28;20026;-83
2023/12/23 10:46:11;;;;;;;0.50;0.50;;;7.30;99.90;;;;;;5015863;28;20143;-82
2023/12/23 10:48:39;;;;;;;0.50;0.50;;;7.40;99.90;;;;;;5017691;28;20046;-82
2023/12/23 10:51:05;;;;;;;2.40;0.60;;;7.40;99.90;;;;;;5017672;28;20040;-82
2023/12/23 10:53:32;;;;;;;0.73;0.60;;;7.40;99.90;;;;;;5016229;28;20106;-83
2023/12/23 10:55:58;;;;;;;0.40;0.40;;;7.40;99.90;;;;;;5017995;28;20041;-83
2023/12/23 10:58:25;;;;;;;1.10;0.43;;;7.40;99.90;;;;;;5018766;28;20022;-82
2023/12/23 11:00:53;;;;;;;1.73;0.50;;;7.40;99.90;;;;;;5017424;28;20071;-84
2023/12/23 11:03:20;;;;;;;1.20;0.70;;;7.50;99.90;;;;;;5018969;28;20061;-83
2023/12/23 11:05:47;;;;;;;0.80;0.60;;;7.40;99.90;;;;;;5020836;28;20175;-83
2023/12/23 11:08:17;;;;;;;1.20;0.50;;;7.40;99.90;;;;;;5027497;28;20057;-83
2023/12/23 11:10:44;;;;;;;0.40;0.40;;;7.30;99.90;;;;;;5018352;28;20429;-83
2023/12/23 11:13:10;;;;;;;1.90;0.67;;;7.40;99.90;;;;;;5019098;28;20018;-82
2023/12/23 11:15:39;;;;;;;0.50;0.50;;;7.40;99.90;;;;;;5017364;28;20165;-82
2023/12/23 11:18:05;;;;;;;0.50;0.50;;;7.40;99.90;;;;;;5014695;28;21214;-82
2023/12/23 11:20:36;;;;;;;0.80;0.50;;;7.40;99.90;;;;;;5015958;28;20026;-83
2023/12/23 11:23:34;;;;;;;2.63;0.77;;;7.40;99.90;;;;;;5011927;28;20506;-82
2023/12/23 11:26:01;;;;;;;1.10;0.60;;;7.30;99.90;;;;;;5007601;28;20224;-83
2023/12/23 11:28:29;;;;;;;0.53;0.50;;;7.30;99.90;;;;;;5015246;28;20183;-83
2023/12/23 11:30:56;;;;;;;0.60;0.50;;;7.30;99.90;;;;;;5013539;28;20271;-82
2023/12/23 11:33:25;;;;;;;0.50;0.50;;;7.30;99.90;;;;;;5015943;28;20041;-80
2023/12/23 11:35:53;;;;;;;0.80;0.60;;;7.40;99.90;;;;;;5015654;28;20037;-80
2023/12/23 11:38:20;;;;;;;0.87;0.50;;;7.30;99.90;;;;;;5013053;28;20077;-80
2023/12/23 11:40:48;;;;;;;0.87;0.60;;;7.40;99.90;;;;;;5007209;28;20062;-82
2023/12/23 11:43:15;;;;;;;0.60;0.60;;;7.40;99.90;;;;;;5009234;28;20026;-80
2023/12/23 11:45:41;;;;;;;2.40;0.50;;;7.40;99.90;;;;;;5012223;28;20033;-82
2023/12/23 11:48:10;;;;;;;0.40;0.40;;;7.40;99.90;;;;;;5013309;28;20045;-82
2023/12/23 11:50:35;;;;;;;1.80;0.70;;;7.50;99.90;;;;;;5010253;28;20041;-82
2023/12/23 11:53:03;;;;;;;1.50;0.60;;;7.50;99.90;;;;;;5010959;28;20041;-82
2023/12/23 11:55:29;;;;;;;0.60;0.60;;;7.50;99.90;;;;;;4997302;28;20053;-80
2023/12/23 11:57:55;;;;;;;2.63;0.80;;;7.50;99.90;;;;;;5008652;28;20034;-86
2023/12/23 12:00:20;;;;;;;3.33;0.60;;;7.40;99.90;;;;;;5001565;28;20255;-81
2023/12/23 12:02:46;;;;;;;2.40;0.60;;;7.40;99.90;;;;;;5012632;28;20030;-79
2023/12/23 12:05:12;;;;;;;0.60;0.50;;;7.40;99.90;;;;;;5011375;28;20086;-82
2023/12/23 12:07:38;;;;;;;1.27;0.60;;;7.40;99.90;;;;;;5012566;28;20030;-84
2023/12/23 12:10:04;;;;;;;0.73;0.50;;;7.40;99.90;;;;;;5004720;28;20507;-85
2023/12/23 12:12:29;;;;;;;0.70;0.70;;;7.40;99.90;;;;;;5003378;28;20090;-81
2023/12/23 12:14:55;;;;;;;1.30;0.50;;;7.40;99.90;;;;;;4999430;28;20057;-83
2023/12/23 12:17:21;;;;;;;1.03;0.60;;;7.30;99.90;;;;;;5006322;28;20132;-82
2023/12/23 12:19:46;;;;;;;1.10;0.70;;;7.30;99.90;;;;;;5005094;28;20041;-81
2023/12/23 12:22:12;;;;;;;0.70;0.70;;;7.20;99.90;;;;;;5008323;28;20036;-82
2023/12/23 12:24:37;;;;;;;1.50;0.50;;;7.30;99.90;;;;;;5003657;28;20034;-83
2023/12/23 12:27:04;;;;;;;0.60;0.57;;;7.30;99.90;;;;;;5005248;28;20037;-82
2023/12/23 12:29:29;;;;;;;0.70;0.60;;;7.30;99.90;;;;;;5006778;28;20029;-81
2023/12/23 12:31:57;;;;;;;1.13;0.60;;;7.30;99.90;;;;;;5005304;28;20036;-81
2023/12/23 12:34:23;;;;;;;0.80;0.47;;;7.30;99.90;;;;;;5002823;28;20982;-82
2023/12/23 12:36:51;;;;;;;0.50;0.50;;;7.30;99.90;;;;;;5006294;28;20038;-81
2023/12/23 12:39:19;;;;;;;0.47;0.47;;;7.30;99.90;;;;;;5006892;28;20125;-82
2023/12/23 12:41:45;;;;;;;0.60;0.50;;;7.30;99.90;;;;;;5003524;28;20093;-80
2023/12/23 12:44:10;;;;;;;0.67;0.60;;;7.40;99.90;;;;;;5004326;28;20098;-81
2023/12/23 12:46:36;;;;;;;0.43;0.43;;;7.30;99.90;;;;;;5002556;28;20133;-81
2023/12/23 12:49:06;;;;;;;2.33;0.67;;;7.40;99.90;;;;;;5003460;28;20392;-81
2023/12/23 12:51:32;;;;;;;0.50;0.50;;;7.40;99.90;;;;;;5001208;28;20104;-81